sensor_id;sensor_type;location;lat;lon;timestamp;P1;durP1;ratioP1;P2;durP2;ratioP2
44197;SDS011;30157;55.512;37.764;2022-07-11T00:01:26;6.90;;;6.20;;
44197;SDS011;30157;55.512;37.764;2022-07-11T00:03:52;9.02;;;6.55;;
44197;SDS011;30157;55.512;37.764;2022-07-11T00:06:18;8.10;;;6.47;;
44197;SDS011;30157;55.512;37.764;2022-07-11T00:08:43;7.50;;;6.00;;
44197;SDS011;30157;55.512;37.764;2022-07-11T00:11:09;9.25;;;6.38;;
44197;SDS011;30157;55.512;37.764;2022-07-11T00:13:37;7.97;;;6.25;;
44197;SDS011;30157;55.512;37.764;2022-07-11T00:16:04;8.60;;;7.18;;
44197;SDS011;30157;55.512;37.764;2022-07-11T00:18:30;9.25;;;6.70;;
44197;SDS011;30157;55.512;37.764;2022-07-11T00:20:56;10.27;;;7.35;;
44197;SDS011;30157;55.512;37.764;2022-07-11T00:23:21;8.85;;;7.22;;
44197;SDS011;30157;55.512;37.764;2022-07-11T00:25:47;11.57;;;7.38;;
44197;SDS011;30157;55.512;37.764;2022-07-11T00:28:13;8.90;;;6.72;;
44197;SDS011;30157;55.512;37.764;2022-07-11T00:30:39;8.60;;;7.30;;
44197;SDS011;30157;55.512;37.764;2022-07-11T00:33:04;12.13;;;7.70;;
44197;SDS011;30157;55.512;37.764;2022-07-11T00:35:32;12.38;;;8.10;;
44197;SDS011;30157;55.512;37.764;2022-07-11T00:37:58;8.52;;;7.05;;
44197;SDS011;30157;55.512;37.764;2022-07-11T00:40:31;8.25;;;6.78;;
44197;SDS011;30157;55.512;37.764;2022-07-11T00:42:57;10.23;;;7.30;;
44197;SDS011;30157;55.512;37.764;2022-07-11T00:45:23;9.38;;;7.43;;
44197;SDS011;30157;55.512;37.764;2022-07-11T00:47:51;10.10;;;7.55;;
44197;SDS011;30157;55.512;37.764;2022-07-11T00:50:16;8.50;;;7.25;;
44197;SDS011;30157;55.512;37.764;2022-07-11T00:52:42;9.75;;;7.50;;
44197;SDS011;30157;55.512;37.764;2022-07-11T00:55:08;9.30;;;7.55;;
44197;SDS011;30157;55.512;37.764;2022-07-11T00:57:37;8.68;;;7.78;;
44197;SDS011;30157;55.512;37.764;2022-07-11T01:00:05;7.95;;;6.88;;
44197;SDS011;30157;55.512;37.764;2022-07-11T01:02:32;8.68;;;7.78;;
44197;SDS011;30157;55.512;37.764;2022-07-11T01:04:57;8.85;;;6.80;;
44197;SDS011;30157;55.512;37.764;2022-07-11T01:07:23;9.20;;;7.97;;
44197;SDS011;30157;55.512;37.764;2022-07-11T01:09:50;9.27;;;7.57;;
44197;SDS011;30157;55.512;37.764;2022-07-11T01:12:16;9.15;;;7.57;;
44197;SDS011;30157;55.512;37.764;2022-07-11T01:14:51;9.30;;;7.50;;
44197;SDS011;30157;55.512;37.764;2022-07-11T01:17:21;8.70;;;7.35;;
44197;SDS011;30157;55.512;37.764;2022-07-11T01:19:47;8.73;;;7.10;;
44197;SDS011;30157;55.512;37.764;2022-07-11T01:22:13;8.45;;;7.22;;
44197;SDS011;30157;55.512;37.764;2022-07-11T01:24:43;8.27;;;7.07;;
44197;SDS011;30157;55.512;37.764;2022-07-11T01:27:10;8.73;;;7.07;;
44197;SDS011;30157;55.512;37.764;2022-07-11T01:29:38;8.20;;;7.13;;
44197;SDS011;30157;55.512;37.764;2022-07-11T01:32:05;8.48;;;7.10;;
44197;SDS011;30157;55.512;37.764;2022-07-11T01:34:32;11.82;;;8.38;;
44197;SDS011;30157;55.512;37.764;2022-07-11T01:36:58;10.52;;;7.18;;
44197;SDS011;30157;55.512;37.764;2022-07-11T01:39:23;9.18;;;7.47;;
44197;SDS011;30157;55.512;37.764;2022-07-11T01:41:50;8.90;;;7.05;;
44197;SDS011;30157;55.512;37.764;2022-07-11T01:44:16;8.98;;;7.47;;
44197;SDS011;30157;55.512;37.764;2022-07-11T01:46:41;6.97;;;6.28;;
44197;SDS011;30157;55.512;37.764;2022-07-11T01:49:07;10.70;;;6.88;;
44197;SDS011;30157;55.512;37.764;2022-07-11T01:51:33;7.10;;;6.40;;
44197;SDS011;30157;55.512;37.764;2022-07-11T01:53:59;6.72;;;6.03;;
44197;SDS011;30157;55.512;37.764;2022-07-11T01:56:25;6.80;;;6.10;;
44197;SDS011;30157;55.512;37.764;2022-07-11T01:58:54;9.48;;;6.75;;
44197;SDS011;30157;55.512;37.764;2022-07-11T02:01:20;7.47;;;6.78;;
44197;SDS011;30157;55.512;37.764;2022-07-11T02:03:46;7.60;;;6.05;;
44197;SDS011;30157;55.512;37.764;2022-07-11T02:06:11;6.88;;;6.10;;
44197;SDS011;30157;55.512;37.764;2022-07-11T02:08:37;7.30;;;6.60;;
44197;SDS011;30157;55.512;37.764;2022-07-11T02:11:03;6.85;;;6.20;;
44197;SDS011;30157;55.512;37.764;2022-07-11T02:13:29;7.32;;;6.45;;
44197;SDS011;30157;55.512;37.764;2022-07-11T02:16:14;7.88;;;6.72;;
44197;SDS011;30157;55.512;37.764;2022-07-11T02:18:40;8.20;;;6.90;;
44197;SDS011;30157;55.512;37.764;2022-07-11T02:21:06;7.68;;;6.88;;
44197;SDS011;30157;55.512;37.764;2022-07-11T02:23:33;8.27;;;6.70;;
44197;SDS011;30157;55.512;37.764;2022-07-11T02:25:59;8.35;;;7.03;;
44197;SDS011;30157;55.512;37.764;2022-07-11T02:28:24;7.60;;;6.80;;
44197;SDS011;30157;55.512;37.764;2022-07-11T02:30:50;7.70;;;6.85;;
44197;SDS011;30157;55.512;37.764;2022-07-11T02:33:16;7.88;;;6.53;;
44197;SDS011;30157;55.512;37.764;2022-07-11T02:35:42;7.75;;;6.85;;
44197;SDS011;30157;55.512;37.764;2022-07-11T02:38:16;8.05;;;6.68;;
44197;SDS011;30157;55.512;37.764;2022-07-11T02:40:42;8.00;;;6.30;;
44197;SDS011;30157;55.512;37.764;2022-07-11T02:43:10;7.93;;;6.93;;
44197;SDS011;30157;55.512;37.764;2022-07-11T02:45:35;9.25;;;6.22;;
44197;SDS011;30157;55.512;37.764;2022-07-11T02:48:01;7.45;;;6.63;;
44197;SDS011;30157;55.512;37.764;2022-07-11T02:50:27;6.60;;;6.00;;
44197;SDS011;30157;55.512;37.764;2022-07-11T02:52:53;7.55;;;6.78;;
44197;SDS011;30157;55.512;37.764;2022-07-11T02:55:18;6.88;;;6.18;;
44197;SDS011;30157;55.512;37.764;2022-07-11T02:57:44;9.13;;;6.35;;
44197;SDS011;30157;55.512;37.764;2022-07-11T03:00:11;7.75;;;6.35;;
44197;SDS011;30157;55.512;37.764;2022-07-11T03:02:39;8.10;;;6.63;;
44197;SDS011;30157;55.512;37.764;2022-07-11T03:05:08;7.75;;;6.25;;
44197;SDS011;30157;55.512;37.764;2022-07-11T03:07:34;7.55;;;6.05;;
44197;SDS011;30157;55.512;37.764;2022-07-11T03:10:00;7.32;;;6.57;;
44197;SDS011;30157;55.512;37.764;2022-07-11T03:12:31;7.38;;;6.22;;
44197;SDS011;30157;55.512;37.764;2022-07-11T03:14:59;9.10;;;6.28;;
44197;SDS011;30157;55.512;37.764;2022-07-11T03:17:25;8.88;;;6.30;;
44197;SDS011;30157;55.512;37.764;2022-07-11T03:19:50;6.57;;;5.90;;
44197;SDS011;30157;55.512;37.764;2022-07-11T03:22:16;6.88;;;5.93;;
44197;SDS011;30157;55.512;37.764;2022-07-11T03:24:42;7.88;;;5.97;;
44197;SDS011;30157;55.512;37.764;2022-07-11T03:27:09;6.80;;;6.00;;
44197;SDS011;30157;55.512;37.764;2022-07-11T03:29:37;8.48;;;5.70;;
44197;SDS011;30157;55.512;37.764;2022-07-11T03:32:03;7.53;;;5.70;;
44197;SDS011;30157;55.512;37.764;2022-07-11T03:34:29;8.20;;;5.68;;
44197;SDS011;30157;55.512;37.764;2022-07-11T03:36:55;7.80;;;5.20;;
44197;SDS011;30157;55.512;37.764;2022-07-11T03:39:24;6.68;;;5.97;;
44197;SDS011;30157;55.512;37.764;2022-07-11T03:41:49;11.52;;;6.65;;
44197;SDS011;30157;55.512;37.764;2022-07-11T03:44:15;9.98;;;6.00;;
44197;SDS011;30157;55.512;37.764;2022-07-11T03:46:41;8.77;;;5.32;;
44197;SDS011;30157;55.512;37.764;2022-07-11T03:49:06;6.47;;;5.30;;
44197;SDS011;30157;55.512;37.764;2022-07-11T03:51:33;7.55;;;5.78;;
44197;SDS011;30157;55.512;37.764;2022-07-11T03:53:59;6.47;;;5.40;;
44197;SDS011;30157;55.512;37.764;2022-07-11T03:56:25;6.53;;;5.30;;
44197;SDS011;30157;55.512;37.764;2022-07-11T03:58:51;6.10;;;5.50;;
44197;SDS011;30157;55.512;37.764;2022-07-11T04:01:17;7.28;;;5.38;;
44197;SDS011;30157;55.512;37.764;2022-07-11T04:03:45;7.47;;;5.07;;
44197;SDS011;30157;55.512;37.764;2022-07-11T04:06:11;6.25;;;4.78;;
44197;SDS011;30157;55.512;37.764;2022-07-11T04:08:37;7.57;;;5.10;;
44197;SDS011;30157;55.512;37.764;2022-07-11T04:11:03;5.90;;;4.97;;
44197;SDS011;30157;55.512;37.764;2022-07-11T04:13:29;6.93;;;5.20;;
44197;SDS011;30157;55.512;37.764;2022-07-11T04:15:56;6.25;;;5.55;;
44197;SDS011;30157;55.512;37.764;2022-07-11T04:18:22;6.53;;;5.88;;
44197;SDS011;30157;55.512;37.764;2022-07-11T04:20:47;7.38;;;5.22;;
44197;SDS011;30157;55.512;37.764;2022-07-11T04:23:15;6.20;;;5.03;;
44197;SDS011;30157;55.512;37.764;2022-07-11T04:25:41;5.25;;;4.72;;
44197;SDS011;30157;55.512;37.764;2022-07-11T04:28:07;6.07;;;5.18;;
44197;SDS011;30157;55.512;37.764;2022-07-11T04:30:33;6.65;;;5.10;;
44197;SDS011;30157;55.512;37.764;2022-07-11T04:32:59;6.15;;;5.07;;
44197;SDS011;30157;55.512;37.764;2022-07-11T04:35:25;6.40;;;5.57;;
44197;SDS011;30157;55.512;37.764;2022-07-11T04:37:56;9.07;;;7.20;;
44197;SDS011;30157;55.512;37.764;2022-07-11T04:40:22;9.63;;;8.63;;
44197;SDS011;30157;55.512;37.764;2022-07-11T04:42:52;6.18;;;5.57;;
44197;SDS011;30157;55.512;37.764;2022-07-11T04:45:18;6.20;;;4.65;;
44197;SDS011;30157;55.512;37.764;2022-07-11T04:47:44;6.05;;;5.07;;
44197;SDS011;30157;55.512;37.764;2022-07-11T04:50:10;5.13;;;4.63;;
44197;SDS011;30157;55.512;37.764;2022-07-11T04:52:36;6.80;;;5.15;;
44197;SDS011;30157;55.512;37.764;2022-07-11T04:55:03;5.75;;;4.88;;
44197;SDS011;30157;55.512;37.764;2022-07-11T04:57:31;6.18;;;4.65;;
44197;SDS011;30157;55.512;37.764;2022-07-11T04:59:57;5.93;;;5.40;;
44197;SDS011;30157;55.512;37.764;2022-07-11T05:02:23;5.53;;;4.90;;
44197;SDS011;30157;55.512;37.764;2022-07-11T05:04:53;7.20;;;5.03;;
44197;SDS011;30157;55.512;37.764;2022-07-11T05:07:19;5.75;;;4.88;;
44197;SDS011;30157;55.512;37.764;2022-07-11T05:09:45;5.40;;;4.72;;
44197;SDS011;30157;55.512;37.764;2022-07-11T05:12:11;6.97;;;5.20;;
44197;SDS011;30157;55.512;37.764;2022-07-11T05:14:36;5.82;;;5.32;;
44197;SDS011;30157;55.512;37.764;2022-07-11T05:17:02;5.95;;;4.90;;
44197;SDS011;30157;55.512;37.764;2022-07-11T05:19:28;4.80;;;4.30;;
44197;SDS011;30157;55.512;37.764;2022-07-11T05:21:54;6.07;;;4.90;;
44197;SDS011;30157;55.512;37.764;2022-07-11T05:24:19;5.38;;;4.82;;
44197;SDS011;30157;55.512;37.764;2022-07-11T05:26:48;6.72;;;5.10;;
44197;SDS011;30157;55.512;37.764;2022-07-11T05:29:14;5.13;;;4.45;;
44197;SDS011;30157;55.512;37.764;2022-07-11T05:31:40;5.75;;;5.15;;
44197;SDS011;30157;55.512;37.764;2022-07-11T05:34:05;5.90;;;4.95;;
44197;SDS011;30157;55.512;37.764;2022-07-11T05:36:31;5.43;;;4.90;;
44197;SDS011;30157;55.512;37.764;2022-07-11T05:38:57;4.80;;;4.40;;
44197;SDS011;30157;55.512;37.764;2022-07-11T05:41:22;7.15;;;4.97;;
44197;SDS011;30157;55.512;37.764;2022-07-11T05:43:48;5.28;;;4.40;;
44197;SDS011;30157;55.512;37.764;2022-07-11T05:46:14;5.20;;;4.72;;
44197;SDS011;30157;55.512;37.764;2022-07-11T05:48:39;3.92;;;3.63;;
44197;SDS011;30157;55.512;37.764;2022-07-11T05:51:05;5.28;;;4.70;;
44197;SDS011;30157;55.512;37.764;2022-07-11T05:53:31;4.75;;;4.05;;
44197;SDS011;30157;55.512;37.764;2022-07-11T05:55:59;4.60;;;4.05;;
44197;SDS011;30157;55.512;37.764;2022-07-11T05:58:27;4.57;;;4.18;;
44197;SDS011;30157;55.512;37.764;2022-07-11T06:00:53;4.85;;;4.30;;
44197;SDS011;30157;55.512;37.764;2022-07-11T06:03:19;7.45;;;4.05;;
44197;SDS011;30157;55.512;37.764;2022-07-11T06:05:44;5.00;;;4.47;;
44197;SDS011;30157;55.512;37.764;2022-07-11T06:08:10;4.85;;;4.25;;
44197;SDS011;30157;55.512;37.764;2022-07-11T06:10:55;4.30;;;3.90;;
44197;SDS011;30157;55.512;37.764;2022-07-11T06:13:21;4.68;;;4.00;;
44197;SDS011;30157;55.512;37.764;2022-07-11T06:15:47;4.78;;;4.10;;
44197;SDS011;30157;55.512;37.764;2022-07-11T06:18:13;4.47;;;4.10;;
44197;SDS011;30157;55.512;37.764;2022-07-11T06:20:38;4.32;;;3.80;;
44197;SDS011;30157;55.512;37.764;2022-07-11T06:23:04;4.53;;;4.07;;
44197;SDS011;30157;55.512;37.764;2022-07-11T06:25:31;3.90;;;3.60;;
44197;SDS011;30157;55.512;37.764;2022-07-11T06:27:57;4.40;;;4.00;;
44197;SDS011;30157;55.512;37.764;2022-07-11T06:30:23;4.30;;;3.90;;
44197;SDS011;30157;55.512;37.764;2022-07-11T06:32:49;5.50;;;4.00;;
44197;SDS011;30157;55.512;37.764;2022-07-11T06:35:14;4.00;;;3.63;;
44197;SDS011;30157;55.512;37.764;2022-07-11T06:37:40;4.10;;;3.70;;
44197;SDS011;30157;55.512;37.764;2022-07-11T06:40:06;4.97;;;4.30;;
44197;SDS011;30157;55.512;37.764;2022-07-11T06:42:37;4.18;;;3.88;;
44197;SDS011;30157;55.512;37.764;2022-07-11T06:45:06;5.00;;;4.20;;
44197;SDS011;30157;55.512;37.764;2022-07-11T06:47:32;4.30;;;3.90;;
44197;SDS011;30157;55.512;37.764;2022-07-11T06:49:58;5.00;;;4.32;;
44197;SDS011;30157;55.512;37.764;2022-07-11T06:52:24;5.00;;;4.53;;
44197;SDS011;30157;55.512;37.764;2022-07-11T06:54:49;4.57;;;4.18;;
44197;SDS011;30157;55.512;37.764;2022-07-11T06:57:15;5.47;;;4.22;;
44197;SDS011;30157;55.512;37.764;2022-07-11T06:59:41;4.10;;;3.78;;
44197;SDS011;30157;55.512;37.764;2022-07-11T07:02:06;4.68;;;4.07;;
44197;SDS011;30157;55.512;37.764;2022-07-11T07:04:32;5.25;;;4.35;;
44197;SDS011;30157;55.512;37.764;2022-07-11T07:06:59;4.63;;;4.22;;
44197;SDS011;30157;55.512;37.764;2022-07-11T07:09:27;4.55;;;4.03;;
44197;SDS011;30157;55.512;37.764;2022-07-11T07:11:53;4.40;;;3.90;;
44197;SDS011;30157;55.512;37.764;2022-07-11T07:14:20;4.00;;;3.70;;
44197;SDS011;30157;55.512;37.764;2022-07-11T07:16:46;4.20;;;3.75;;
44197;SDS011;30157;55.512;37.764;2022-07-11T07:19:13;4.22;;;3.35;;
44197;SDS011;30157;55.512;37.764;2022-07-11T07:21:39;4.07;;;3.63;;
44197;SDS011;30157;55.512;37.764;2022-07-11T07:24:05;4.50;;;4.10;;
44197;SDS011;30157;55.512;37.764;2022-07-11T07:26:31;3.95;;;3.55;;
44197;SDS011;30157;55.512;37.764;2022-07-11T07:29:00;4.22;;;3.80;;
44197;SDS011;30157;55.512;37.764;2022-07-11T07:31:25;4.38;;;3.63;;
44197;SDS011;30157;55.512;37.764;2022-07-11T07:33:51;4.68;;;4.05;;
44197;SDS011;30157;55.512;37.764;2022-07-11T07:36:17;4.93;;;3.80;;
44197;SDS011;30157;55.512;37.764;2022-07-11T07:38:43;6.40;;;4.60;;
44197;SDS011;30157;55.512;37.764;2022-07-11T07:41:12;4.30;;;3.90;;
44197;SDS011;30157;55.512;37.764;2022-07-11T07:43:39;5.40;;;3.58;;
44197;SDS011;30157;55.512;37.764;2022-07-11T07:46:05;4.43;;;4.03;;
44197;SDS011;30157;55.512;37.764;2022-07-11T07:48:30;4.18;;;3.78;;
44197;SDS011;30157;55.512;37.764;2022-07-11T07:50:56;4.60;;;4.20;;
44197;SDS011;30157;55.512;37.764;2022-07-11T07:53:22;3.53;;;3.22;;
44197;SDS011;30157;55.512;37.764;2022-07-11T07:55:48;5.30;;;4.20;;
44197;SDS011;30157;55.512;37.764;2022-07-11T07:58:14;5.22;;;3.70;;
44197;SDS011;30157;55.512;37.764;2022-07-11T08:00:40;4.88;;;3.58;;
44197;SDS011;30157;55.512;37.764;2022-07-11T08:03:27;3.97;;;3.67;;
44197;SDS011;30157;55.512;37.764;2022-07-11T08:05:52;4.32;;;3.92;;
44197;SDS011;30157;55.512;37.764;2022-07-11T08:08:18;4.22;;;3.83;;
44197;SDS011;30157;55.512;37.764;2022-07-11T08:10:46;5.40;;;4.05;;
44197;SDS011;30157;55.512;37.764;2022-07-11T08:13:12;4.05;;;3.65;;
44197;SDS011;30157;55.512;37.764;2022-07-11T08:15:38;4.13;;;3.70;;
44197;SDS011;30157;55.512;37.764;2022-07-11T08:18:06;5.93;;;3.80;;
44197;SDS011;30157;55.512;37.764;2022-07-11T08:20:32;4.60;;;4.20;;
44197;SDS011;30157;55.512;37.764;2022-07-11T08:23:01;4.40;;;4.00;;
44197;SDS011;30157;55.512;37.764;2022-07-11T08:25:29;5.18;;;3.60;;
44197;SDS011;30157;55.512;37.764;2022-07-11T08:27:55;5.85;;;4.18;;
44197;SDS011;30157;55.512;37.764;2022-07-11T08:30:22;4.50;;;4.00;;
44197;SDS011;30157;55.512;37.764;2022-07-11T08:32:47;4.43;;;3.97;;
44197;SDS011;30157;55.512;37.764;2022-07-11T08:35:13;4.13;;;3.72;;
44197;SDS011;30157;55.512;37.764;2022-07-11T08:37:42;6.28;;;4.07;;
44197;SDS011;30157;55.512;37.764;2022-07-11T08:40:08;4.88;;;4.38;;
44197;SDS011;30157;55.512;37.764;2022-07-11T08:42:40;6.60;;;4.10;;
44197;SDS011;30157;55.512;37.764;2022-07-11T08:45:13;4.80;;;3.97;;
44197;SDS011;30157;55.512;37.764;2022-07-11T08:47:41;4.50;;;3.95;;
44197;SDS011;30157;55.512;37.764;2022-07-11T08:50:08;5.28;;;4.32;;
44197;SDS011;30157;55.512;37.764;2022-07-11T08:52:35;5.60;;;4.10;;
44197;SDS011;30157;55.512;37.764;2022-07-11T08:55:02;4.53;;;4.13;;
44197;SDS011;30157;55.512;37.764;2022-07-11T08:57:37;4.57;;;4.18;;
44197;SDS011;30157;55.512;37.764;2022-07-11T09:00:07;4.65;;;4.22;;
44197;SDS011;30157;55.512;37.764;2022-07-11T09:02:35;5.10;;;4.63;;
44197;SDS011;30157;55.512;37.764;2022-07-11T09:05:02;9.23;;;4.70;;
44197;SDS011;30157;55.512;37.764;2022-07-11T09:07:31;4.50;;;4.10;;
44197;SDS011;30157;55.512;37.764;2022-07-11T09:09:57;6.05;;;4.13;;
44197;SDS011;30157;55.512;37.764;2022-07-11T09:12:23;4.30;;;3.90;;
44197;SDS011;30157;55.512;37.764;2022-07-11T09:14:49;4.30;;;3.72;;
44197;SDS011;30157;55.512;37.764;2022-07-11T09:17:25;5.82;;;3.70;;
44197;SDS011;30157;55.512;37.764;2022-07-11T09:19:53;7.07;;;4.07;;
44197;SDS011;30157;55.512;37.764;2022-07-11T09:22:20;4.35;;;3.95;;
44197;SDS011;30157;55.512;37.764;2022-07-11T09:25:07;5.70;;;4.78;;
44197;SDS011;30157;55.512;37.764;2022-07-11T09:27:53;5.50;;;3.75;;
44197;SDS011;30157;55.512;37.764;2022-07-11T09:30:23;4.10;;;3.60;;
44197;SDS011;30157;55.512;37.764;2022-07-11T09:33:01;5.28;;;4.00;;
44197;SDS011;30157;55.512;37.764;2022-07-11T09:38:09;3.70;;;3.40;;
44197;SDS011;30157;55.512;37.764;2022-07-11T09:40:36;4.82;;;3.67;;
44197;SDS011;30157;55.512;37.764;2022-07-11T09:43:03;3.60;;;3.30;;
44197;SDS011;30157;55.512;37.764;2022-07-11T09:45:30;4.88;;;3.15;;
44197;SDS011;30157;55.512;37.764;2022-07-11T09:47:59;3.50;;;3.20;;
44197;SDS011;30157;55.512;37.764;2022-07-11T09:50:27;6.13;;;3.92;;
44197;SDS011;30157;55.512;37.764;2022-07-11T09:53:05;4.63;;;3.58;;
44197;SDS011;30157;55.512;37.764;2022-07-11T09:55:34;3.85;;;3.53;;
44197;SDS011;30157;55.512;37.764;2022-07-11T09:58:08;4.40;;;3.30;;
44197;SDS011;30157;55.512;37.764;2022-07-11T10:00:36;4.30;;;3.90;;
44197;SDS011;30157;55.512;37.764;2022-07-11T10:03:04;4.50;;;3.75;;
44197;SDS011;30157;55.512;37.764;2022-07-11T10:05:31;4.18;;;3.83;;
44197;SDS011;30157;55.512;37.764;2022-07-11T10:07:58;3.95;;;3.55;;
44197;SDS011;30157;55.512;37.764;2022-07-11T10:10:25;4.57;;;3.40;;
44197;SDS011;30157;55.512;37.764;2022-07-11T10:12:54;6.53;;;3.45;;
44197;SDS011;30157;55.512;37.764;2022-07-11T10:15:26;3.95;;;3.10;;
44197;SDS011;30157;55.512;37.764;2022-07-11T10:30:57;5.03;;;3.47;;
44197;SDS011;30157;55.512;37.764;2022-07-11T10:33:26;4.25;;;3.85;;
44197;SDS011;30157;55.512;37.764;2022-07-11T10:35:55;9.55;;;4.07;;
44197;SDS011;30157;55.512;37.764;2022-07-11T10:38:22;5.45;;;3.55;;
44197;SDS011;30157;55.512;37.764;2022-07-11T10:46:00;4.82;;;3.38;;
44197;SDS011;30157;55.512;37.764;2022-07-11T10:48:28;4.65;;;3.88;;
44197;SDS011;30157;55.512;37.764;2022-07-11T10:51:08;4.30;;;3.65;;
44197;SDS011;30157;55.512;37.764;2022-07-11T10:53:46;3.80;;;3.40;;
44197;SDS011;30157;55.512;37.764;2022-07-11T10:59:12;4.13;;;3.72;;
44197;SDS011;30157;55.512;37.764;2022-07-11T11:04:43;7.32;;;4.07;;
44197;SDS011;30157;55.512;37.764;2022-07-11T11:07:39;4.45;;;3.53;;
44197;SDS011;30157;55.512;37.764;2022-07-11T11:10:07;4.82;;;4.13;;
44197;SDS011;30157;55.512;37.764;2022-07-11T11:15:44;4.07;;;3.55;;
44197;SDS011;30157;55.512;37.764;2022-07-11T11:30:55;6.93;;;3.90;;
44197;SDS011;30157;55.512;37.764;2022-07-11T11:33:21;4.35;;;3.63;;
44197;SDS011;30157;55.512;37.764;2022-07-11T11:38:34;5.18;;;3.40;;
44197;SDS011;30157;55.512;37.764;2022-07-11T11:41:04;5.13;;;3.50;;
44197;SDS011;30157;55.512;37.764;2022-07-11T11:43:33;7.22;;;3.42;;
44197;SDS011;30157;55.512;37.764;2022-07-11T11:46:03;6.38;;;3.25;;
44197;SDS011;30157;55.512;37.764;2022-07-11T11:48:33;3.75;;;3.03;;
44197;SDS011;30157;55.512;37.764;2022-07-11T11:51:00;3.35;;;3.05;;
44197;SDS011;30157;55.512;37.764;2022-07-11T11:53:27;5.32;;;3.33;;
44197;SDS011;30157;55.512;37.764;2022-07-11T11:55:54;5.85;;;3.28;;
44197;SDS011;30157;55.512;37.764;2022-07-11T11:58:20;4.70;;;3.28;;
44197;SDS011;30157;55.512;37.764;2022-07-11T12:00:55;9.80;;;3.40;;
44197;SDS011;30157;55.512;37.764;2022-07-11T12:03:21;6.70;;;3.22;;
44197;SDS011;30157;55.512;37.764;2022-07-11T12:05:54;5.75;;;3.15;;
44197;SDS011;30157;55.512;37.764;2022-07-11T12:08:29;9.15;;;3.22;;
44197;SDS011;30157;55.512;37.764;2022-07-11T12:10:55;9.20;;;3.10;;
44197;SDS011;30157;55.512;37.764;2022-07-11T12:13:21;7.40;;;3.45;;
44197;SDS011;30157;55.512;37.764;2022-07-11T12:15:47;3.35;;;2.63;;
44197;SDS011;30157;55.512;37.764;2022-07-11T12:18:37;4.72;;;3.10;;
44197;SDS011;30157;55.512;37.764;2022-07-11T12:21:12;7.15;;;3.33;;
44197;SDS011;30157;55.512;37.764;2022-07-11T12:23:39;4.82;;;3.08;;
44197;SDS011;30157;55.512;37.764;2022-07-11T12:26:05;5.38;;;3.00;;
44197;SDS011;30157;55.512;37.764;2022-07-11T12:28:34;8.85;;;3.38;;
44197;SDS011;30157;55.512;37.764;2022-07-11T12:31:00;6.57;;;2.97;;
44197;SDS011;30157;55.512;37.764;2022-07-11T12:33:27;4.72;;;3.53;;
44197;SDS011;30157;55.512;37.764;2022-07-11T12:35:54;5.15;;;3.38;;
44197;SDS011;30157;55.512;37.764;2022-07-11T12:38:46;6.32;;;3.25;;
44197;SDS011;30157;55.512;37.764;2022-07-11T12:41:19;3.97;;;2.95;;
44197;SDS011;30157;55.512;37.764;2022-07-11T12:43:49;6.10;;;3.13;;
44197;SDS011;30157;55.512;37.764;2022-07-11T12:46:35;5.88;;;3.67;;
44197;SDS011;30157;55.512;37.764;2022-07-11T12:49:05;5.68;;;3.20;;
44197;SDS011;30157;55.512;37.764;2022-07-11T12:51:33;5.95;;;2.90;;
44197;SDS011;30157;55.512;37.764;2022-07-11T12:54:01;5.47;;;3.10;;
44197;SDS011;30157;55.512;37.764;2022-07-11T12:56:28;4.25;;;3.08;;
44197;SDS011;30157;55.512;37.764;2022-07-11T12:58:54;5.20;;;2.95;;
44197;SDS011;30157;55.512;37.764;2022-07-11T13:01:20;4.00;;;2.80;;
44197;SDS011;30157;55.512;37.764;2022-07-11T13:03:46;5.13;;;3.10;;
44197;SDS011;30157;55.512;37.764;2022-07-11T13:06:12;4.55;;;2.72;;
44197;SDS011;30157;55.512;37.764;2022-07-11T13:08:40;4.63;;;3.15;;
44197;SDS011;30157;55.512;37.764;2022-07-11T13:11:16;5.63;;;3.08;;
44197;SDS011;30157;55.512;37.764;2022-07-11T13:13:48;5.00;;;3.30;;
44197;SDS011;30157;55.512;37.764;2022-07-11T13:16:18;5.25;;;3.10;;
44197;SDS011;30157;55.512;37.764;2022-07-11T13:18:46;4.03;;;2.97;;
44197;SDS011;30157;55.512;37.764;2022-07-11T13:21:12;6.53;;;3.00;;
44197;SDS011;30157;55.512;37.764;2022-07-11T13:23:38;7.28;;;3.55;;
44197;SDS011;30157;55.512;37.764;2022-07-11T13:26:05;5.40;;;3.10;;
44197;SDS011;30157;55.512;37.764;2022-07-11T13:28:31;5.00;;;3.03;;
44197;SDS011;30157;55.512;37.764;2022-07-11T13:30:58;6.32;;;3.20;;
44197;SDS011;30157;55.512;37.764;2022-07-11T13:33:24;6.75;;;3.50;;
44197;SDS011;30157;55.512;37.764;2022-07-11T13:35:51;3.78;;;2.72;;
44197;SDS011;30157;55.512;37.764;2022-07-11T13:38:18;5.47;;;3.35;;
44197;SDS011;30157;55.512;37.764;2022-07-11T13:40:45;3.60;;;2.83;;
44197;SDS011;30157;55.512;37.764;2022-07-11T13:43:11;4.55;;;3.05;;
44197;SDS011;30157;55.512;37.764;2022-07-11T13:45:38;5.00;;;3.22;;
44197;SDS011;30157;55.512;37.764;2022-07-11T13:48:07;5.95;;;3.25;;
44197;SDS011;30157;55.512;37.764;2022-07-11T13:50:33;4.82;;;2.95;;
44197;SDS011;30157;55.512;37.764;2022-07-11T13:52:59;4.18;;;2.83;;
44197;SDS011;30157;55.512;37.764;2022-07-11T13:55:25;5.45;;;2.85;;
44197;SDS011;30157;55.512;37.764;2022-07-11T13:57:55;4.05;;;2.70;;
44197;SDS011;30157;55.512;37.764;2022-07-11T14:00:22;5.68;;;2.90;;
44197;SDS011;30157;55.512;37.764;2022-07-11T14:02:48;5.05;;;3.30;;
44197;SDS011;30157;55.512;37.764;2022-07-11T14:05:14;8.95;;;3.58;;
44197;SDS011;30157;55.512;37.764;2022-07-11T14:07:41;5.88;;;3.38;;
44197;SDS011;30157;55.512;37.764;2022-07-11T14:10:07;3.55;;;3.03;;
44197;SDS011;30157;55.512;37.764;2022-07-11T14:12:34;5.18;;;2.70;;
44197;SDS011;30157;55.512;37.764;2022-07-11T14:15:00;6.03;;;3.15;;
44197;SDS011;30157;55.512;37.764;2022-07-11T14:17:25;5.25;;;3.10;;
44197;SDS011;30157;55.512;37.764;2022-07-11T14:19:54;6.65;;;2.88;;
44197;SDS011;30157;55.512;37.764;2022-07-11T14:22:22;7.38;;;3.20;;
44197;SDS011;30157;55.512;37.764;2022-07-11T14:24:48;4.93;;;2.92;;
44197;SDS011;30157;55.512;37.764;2022-07-11T14:27:18;5.90;;;3.50;;
44197;SDS011;30157;55.512;37.764;2022-07-11T14:29:45;6.47;;;2.97;;
44197;SDS011;30157;55.512;37.764;2022-07-11T14:32:12;6.32;;;3.30;;
44197;SDS011;30157;55.512;37.764;2022-07-11T14:34:42;6.60;;;4.05;;
44197;SDS011;30157;55.512;37.764;2022-07-11T14:37:09;6.53;;;3.88;;
44197;SDS011;30157;55.512;37.764;2022-07-11T14:39:34;6.15;;;3.50;;
44197;SDS011;30157;55.512;37.764;2022-07-11T14:42:00;7.10;;;3.10;;
44197;SDS011;30157;55.512;37.764;2022-07-11T14:44:26;7.50;;;3.70;;
44197;SDS011;30157;55.512;37.764;2022-07-11T14:46:53;6.38;;;2.75;;
44197;SDS011;30157;55.512;37.764;2022-07-11T14:49:19;4.95;;;2.50;;
44197;SDS011;30157;55.512;37.764;2022-07-11T14:51:45;3.58;;;2.60;;
44197;SDS011;30157;55.512;37.764;2022-07-11T14:54:11;4.05;;;2.70;;
44197;SDS011;30157;55.512;37.764;2022-07-11T14:56:38;7.78;;;2.75;;
44197;SDS011;30157;55.512;37.764;2022-07-11T14:59:05;6.45;;;2.63;;
44197;SDS011;30157;55.512;37.764;2022-07-11T15:01:31;7.60;;;3.03;;
44197;SDS011;30157;55.512;37.764;2022-07-11T15:03:57;5.32;;;3.30;;
44197;SDS011;30157;55.512;37.764;2022-07-11T15:06:28;4.10;;;3.53;;
44197;SDS011;30157;55.512;37.764;2022-07-11T15:09:12;7.50;;;3.20;;
44197;SDS011;30157;55.512;37.764;2022-07-11T15:11:57;5.97;;;3.10;;
44197;SDS011;30157;55.512;37.764;2022-07-11T15:14:43;5.15;;;3.47;;
44197;SDS011;30157;55.512;37.764;2022-07-11T15:17:09;4.03;;;2.83;;
44197;SDS011;30157;55.512;37.764;2022-07-11T15:19:35;4.50;;;3.10;;
44197;SDS011;30157;55.512;37.764;2022-07-11T15:22:01;6.20;;;3.03;;